Sanford, FL

5:17 AM EDT on September 23, 2014 (GMT -0400)
Forest Cove | Change Station
CLOSE
Current Station
Personal Weather Station
Location: Sanford, FL
Elevation: 36 ft
Nearby Weather Stations

Elev 36 ft 28.83 °N, 81.34 °W | Updated 11 seconds ago

Overcast
Overcast
70.5 °F
Feels Like 70.5 °F
N
0.0
Wind Variable Wind from SW
Gusts 0.0 mph

Today
High -- | Low -- °F
--% Chance of Precip.
Yesterday
High -- | Low -- °F
Precip. -- in
7:14 AM 7:20 PM
Waning Crescent, 1% visible
Pressure 29.97 in
Visibility 10.0 miles
Clouds Overcast 11000 ft
Dew Point 68 °F
Humidity 93%
Rainfall 0.00 in
Snow Depth Not available.
UV 0 out of 12
Pollen 2.70 out of 12
Air Quality Not available.
Flu Activity Not available.
METAR KSFB 230853Z AUTO 06003KT 10SM OVC110 22/22 A2997 RMK AO2 SLP148 T02220217 58006

More Conditions Fewer Conditions

Pressure 29.97 in
Visibility 10.0 miles
Clouds Overcast 11000 ft
Dew Point 68 °F
Humidity 93%
Rainfall 0.00 in
Snow Depth Not available.
UV 0 out of 12
Pollen 2.70 out of 12
Air Quality Not available.
Flu Activity Not available.
METAR KSFB 230853Z AUTO 06003KT 10SM OVC110 22/22 A2997 RMK AO2 SLP148 T02220217 58006

More Conditions Fewer Conditions

Nowcast | as of 2:24 am EDT on September 23, 2014

Mostly cloudy to cloudy skies with a shower or two moving to the northeast at 10 to 15 mph. Most of the precipitation should stay west of Daytona and Orlando. Additional details...including graphics are available online at: http://www.Srh.NOAA.Gov/mlb/blog.Php

×

10-Day Weather Forecast

Almanac

Astronomy

Sep. 23, 2014 Rise Set
Actual Time 7:14 AM EDT 7:20 PM EDT
Civil Twilight 6:50 AM EDT 7:44 PM EDT
Nautical Twilight 6:23 AM EDT 8:11 PM EDT
Astronomical Twilight 5:55 AM EDT 8:39 PM EDT
Moon 6:38 AM EDT 6:59 PM EDT
Length of Visible Light 12h 53m
Length of Day
12h 06m
Tomorrow will be 1m 44s shorter.
Waning Crescent, 1% of the Moon is Illuminated
Today
Waning Crescent
Sep 24
New
Oct 1
First Quarter
Oct 8
Full
Oct 15
Last Quarter

Today's Extremes

State Highs State Lows

Community

WunderPhotos

Upload Photos

1,755,643 photos uploaded!

Nearby

Snow Depth

Station Depth Elevation
No new snow has been reported.

Earthquake Activity

City Distance Mag. Time & Date
No recent earthquake activity has been reported nearby.
Minimum magnitude displayed is 2.5.

Coastal Water Temperatures

Place Temperature
Trident Pier, FL 82.9 °F
Fort Myers, FL 82.9 °F
Lake Worth, FL 84.9 °F

Nearby Weather Stations